sensor_id;sensor_type;location;lat;lon;timestamp;temperature;humidity
31113;DHT22;17763;48.730;9.136;2022-08-14T00:00:48;21.60;55.30
31113;DHT22;17763;48.730;9.136;2022-08-14T00:03:25;21.60;55.20
31113;DHT22;17763;48.730;9.136;2022-08-14T00:05:52;21.60;55.00
31113;DHT22;17763;48.730;9.136;2022-08-14T00:08:18;21.60;55.00
31113;DHT22;17763;48.730;9.136;2022-08-14T00:10:44;21.60;54.80
31113;DHT22;17763;48.730;9.136;2022-08-14T00:13:10;21.60;55.00
31113;DHT22;17763;48.730;9.136;2022-08-14T00:15:40;21.60;55.80
31113;DHT22;17763;48.730;9.136;2022-08-14T00:18:08;21.50;55.90
31113;DHT22;17763;48.730;9.136;2022-08-14T00:20:36;21.50;56.00
31113;DHT22;17763;48.730;9.136;2022-08-14T00:23:04;21.50;55.80
31113;DHT22;17763;48.730;9.136;2022-08-14T00:25:31;21.50;55.60
31113;DHT22;17763;48.730;9.136;2022-08-14T00:27:56;21.50;55.80
31113;DHT22;17763;48.730;9.136;2022-08-14T00:30:22;21.50;56.00
31113;DHT22;17763;48.730;9.136;2022-08-14T00:32:48;21.50;56.50
31113;DHT22;17763;48.730;9.136;2022-08-14T00:35:16;21.50;56.70
31113;DHT22;17763;48.730;9.136;2022-08-14T00:37:43;21.40;56.80
31113;DHT22;17763;48.730;9.136;2022-08-14T00:40:13;21.30;56.90
31113;DHT22;17763;48.730;9.136;2022-08-14T00:42:42;21.30;57.10
31113;DHT22;17763;48.730;9.136;2022-08-14T00:45:10;21.30;57.20
31113;DHT22;17763;48.730;9.136;2022-08-14T00:47:37;21.30;57.10
31113;DHT22;17763;48.730;9.136;2022-08-14T00:50:06;21.30;57.10
31113;DHT22;17763;48.730;9.136;2022-08-14T00:52:33;21.20;57.10
31113;DHT22;17763;48.730;9.136;2022-08-14T00:55:00;21.20;57.30
31113;DHT22;17763;48.730;9.136;2022-08-14T00:57:29;21.20;57.10
31113;DHT22;17763;48.730;9.136;2022-08-14T00:59:55;21.20;57.30
31113;DHT22;17763;48.730;9.136;2022-08-14T01:02:22;21.10;57.20
31113;DHT22;17763;48.730;9.136;2022-08-14T01:04:59;21.10;57.20
31113;DHT22;17763;48.730;9.136;2022-08-14T01:07:26;21.00;57.50
31113;DHT22;17763;48.730;9.136;2022-08-14T01:09:59;21.00;57.50
31113;DHT22;17763;48.730;9.136;2022-08-14T01:12:30;21.00;57.60
31113;DHT22;17763;48.730;9.136;2022-08-14T01:14:58;20.90;57.70
31113;DHT22;17763;48.730;9.136;2022-08-14T01:17:26;20.90;57.60
31113;DHT22;17763;48.730;9.136;2022-08-14T01:20:15;20.90;57.50
31113;DHT22;17763;48.730;9.136;2022-08-14T01:22:59;20.90;57.40
31113;DHT22;17763;48.730;9.136;2022-08-14T01:25:25;20.90;57.50
31113;DHT22;17763;48.730;9.136;2022-08-14T01:27:50;20.90;57.40
31113;DHT22;17763;48.730;9.136;2022-08-14T01:30:19;20.80;57.40
31113;DHT22;17763;48.730;9.136;2022-08-14T01:32:48;20.80;57.50
31113;DHT22;17763;48.730;9.136;2022-08-14T01:35:16;20.80;57.40
31113;DHT22;17763;48.730;9.136;2022-08-14T01:37:46;20.80;57.60
31113;DHT22;17763;48.730;9.136;2022-08-14T01:40:13;20.70;57.50
31113;DHT22;17763;48.730;9.136;2022-08-14T01:42:42;20.70;57.50
31113;DHT22;17763;48.730;9.136;2022-08-14T01:45:08;20.70;57.70
31113;DHT22;17763;48.730;9.136;2022-08-14T01:47:37;20.70;57.90
31113;DHT22;17763;48.730;9.136;2022-08-14T01:50:07;20.60;57.70
31113;DHT22;17763;48.730;9.136;2022-08-14T01:52:34;20.60;57.80
31113;DHT22;17763;48.730;9.136;2022-08-14T01:55:05;20.60;57.90
31113;DHT22;17763;48.730;9.136;2022-08-14T01:57:35;20.60;57.90
31113;DHT22;17763;48.730;9.136;2022-08-14T02:00:06;20.60;58.00
31113;DHT22;17763;48.730;9.136;2022-08-14T02:02:41;20.60;58.00
31113;DHT22;17763;48.730;9.136;2022-08-14T02:05:10;20.60;58.10
31113;DHT22;17763;48.730;9.136;2022-08-14T02:07:36;20.60;58.30
31113;DHT22;17763;48.730;9.136;2022-08-14T02:10:02;20.50;58.40
31113;DHT22;17763;48.730;9.136;2022-08-14T02:12:29;20.50;58.50
31113;DHT22;17763;48.730;9.136;2022-08-14T02:14:55;20.50;58.50
31113;DHT22;17763;48.730;9.136;2022-08-14T02:17:24;20.50;58.40
31113;DHT22;17763;48.730;9.136;2022-08-14T02:19:49;20.40;58.60
31113;DHT22;17763;48.730;9.136;2022-08-14T02:22:15;20.40;58.80
31113;DHT22;17763;48.730;9.136;2022-08-14T02:24:45;20.40;58.80
31113;DHT22;17763;48.730;9.136;2022-08-14T02:27:14;20.40;58.90
31113;DHT22;17763;48.730;9.136;2022-08-14T02:29:42;20.40;58.90
31113;DHT22;17763;48.730;9.136;2022-08-14T02:32:08;20.40;59.00
31113;DHT22;17763;48.730;9.136;2022-08-14T02:34:36;20.40;59.00
31113;DHT22;17763;48.730;9.136;2022-08-14T02:37:09;20.40;59.10
31113;DHT22;17763;48.730;9.136;2022-08-14T02:39:43;20.30;59.10
31113;DHT22;17763;48.730;9.136;2022-08-14T02:42:18;20.30;59.20
31113;DHT22;17763;48.730;9.136;2022-08-14T02:44:48;20.30;59.20
31113;DHT22;17763;48.730;9.136;2022-08-14T02:47:18;20.20;59.30
31113;DHT22;17763;48.730;9.136;2022-08-14T02:49:44;20.20;59.30
31113;DHT22;17763;48.730;9.136;2022-08-14T02:52:10;20.20;59.30
31113;DHT22;17763;48.730;9.136;2022-08-14T02:54:37;20.20;59.30
31113;DHT22;17763;48.730;9.136;2022-08-14T02:57:05;20.20;59.40
31113;DHT22;17763;48.730;9.136;2022-08-14T02:59:32;20.10;59.60
31113;DHT22;17763;48.730;9.136;2022-08-14T03:01:59;20.10;60.10
31113;DHT22;17763;48.730;9.136;2022-08-14T03:04:27;20.10;60.00
31113;DHT22;17763;48.730;9.136;2022-08-14T03:06:54;20.00;60.10
31113;DHT22;17763;48.730;9.136;2022-08-14T03:09:23;20.00;60.30
31113;DHT22;17763;48.730;9.136;2022-08-14T03:11:51;20.00;62.80
31113;DHT22;17763;48.730;9.136;2022-08-14T03:14:20;19.90;63.40
31113;DHT22;17763;48.730;9.136;2022-08-14T03:16:48;19.90;62.40
31113;DHT22;17763;48.730;9.136;2022-08-14T03:19:14;19.90;61.90
31113;DHT22;17763;48.730;9.136;2022-08-14T03:21:40;19.80;61.50
31113;DHT22;17763;48.730;9.136;2022-08-14T03:24:06;19.80;61.60
31113;DHT22;17763;48.730;9.136;2022-08-14T03:26:32;19.80;61.50
31113;DHT22;17763;48.730;9.136;2022-08-14T03:29:00;19.80;61.50
31113;DHT22;17763;48.730;9.136;2022-08-14T03:31:26;19.70;61.40
31113;DHT22;17763;48.730;9.136;2022-08-14T03:33:55;19.70;61.30
31113;DHT22;17763;48.730;9.136;2022-08-14T03:36:21;19.70;61.40
31113;DHT22;17763;48.730;9.136;2022-08-14T03:38:50;19.70;61.50
31113;DHT22;17763;48.730;9.136;2022-08-14T03:41:23;19.70;61.50
31113;DHT22;17763;48.730;9.136;2022-08-14T03:43:59;19.70;61.50
31113;DHT22;17763;48.730;9.136;2022-08-14T03:46:30;19.70;61.60
31113;DHT22;17763;48.730;9.136;2022-08-14T03:48:59;19.70;61.60
31113;DHT22;17763;48.730;9.136;2022-08-14T03:51:34;19.60;61.60
31113;DHT22;17763;48.730;9.136;2022-08-14T03:54:03;19.60;61.70
31113;DHT22;17763;48.730;9.136;2022-08-14T03:56:30;19.60;61.80
31113;DHT22;17763;48.730;9.136;2022-08-14T03:58:59;19.60;61.90
31113;DHT22;17763;48.730;9.136;2022-08-14T04:01:27;19.50;61.90
31113;DHT22;17763;48.730;9.136;2022-08-14T04:03:56;19.50;61.90
31113;DHT22;17763;48.730;9.136;2022-08-14T04:06:23;19.50;62.10
31113;DHT22;17763;48.730;9.136;2022-08-14T04:08:50;19.50;62.20
31113;DHT22;17763;48.730;9.136;2022-08-14T04:11:17;19.40;62.20
31113;DHT22;17763;48.730;9.136;2022-08-14T04:13:45;19.40;62.40
31113;DHT22;17763;48.730;9.136;2022-08-14T04:16:19;19.40;64.50
31113;DHT22;17763;48.730;9.136;2022-08-14T04:18:50;19.40;67.20
31113;DHT22;17763;48.730;9.136;2022-08-14T04:21:17;19.30;66.30
31113;DHT22;17763;48.730;9.136;2022-08-14T04:23:44;19.30;65.60
31113;DHT22;17763;48.730;9.136;2022-08-14T04:26:14;19.20;64.80
31113;DHT22;17763;48.730;9.136;2022-08-14T04:28:42;19.20;64.20
31113;DHT22;17763;48.730;9.136;2022-08-14T04:31:08;19.20;64.50
31113;DHT22;17763;48.730;9.136;2022-08-14T04:33:34;19.20;64.60
31113;DHT22;17763;48.730;9.136;2022-08-14T04:36:02;19.20;64.30
31113;DHT22;17763;48.730;9.136;2022-08-14T04:38:31;19.20;64.10
31113;DHT22;17763;48.730;9.136;2022-08-14T04:41:17;19.20;64.50
31113;DHT22;17763;48.730;9.136;2022-08-14T04:44:03;19.30;64.70
31113;DHT22;17763;48.730;9.136;2022-08-14T04:46:33;19.30;64.60
31113;DHT22;17763;48.730;9.136;2022-08-14T04:48:59;19.30;64.70
31113;DHT22;17763;48.730;9.136;2022-08-14T04:51:27;19.30;64.50
31113;DHT22;17763;48.730;9.136;2022-08-14T04:53:54;19.30;64.50
31113;DHT22;17763;48.730;9.136;2022-08-14T04:56:24;19.30;64.60
31113;DHT22;17763;48.730;9.136;2022-08-14T04:58:57;19.30;65.00
31113;DHT22;17763;48.730;9.136;2022-08-14T05:01:24;19.30;64.50
31113;DHT22;17763;48.730;9.136;2022-08-14T05:03:53;19.40;64.20
31113;DHT22;17763;48.730;9.136;2022-08-14T05:06:19;19.30;64.30
31113;DHT22;17763;48.730;9.136;2022-08-14T05:08:46;19.40;63.60
31113;DHT22;17763;48.730;9.136;2022-08-14T05:11:12;19.40;63.70
31113;DHT22;17763;48.730;9.136;2022-08-14T05:13:38;19.40;63.70
31113;DHT22;17763;48.730;9.136;2022-08-14T05:16:05;19.50;63.80
31113;DHT22;17763;48.730;9.136;2022-08-14T05:18:36;19.50;63.80
31113;DHT22;17763;48.730;9.136;2022-08-14T05:21:05;19.50;63.60
31113;DHT22;17763;48.730;9.136;2022-08-14T05:23:33;19.60;63.50
31113;DHT22;17763;48.730;9.136;2022-08-14T05:25:59;19.70;63.60
31113;DHT22;17763;48.730;9.136;2022-08-14T05:28:33;19.70;63.50
31113;DHT22;17763;48.730;9.136;2022-08-14T05:31:01;19.70;63.70
31113;DHT22;17763;48.730;9.136;2022-08-14T05:33:31;19.70;63.70
31113;DHT22;17763;48.730;9.136;2022-08-14T05:36:00;19.80;63.70
31113;DHT22;17763;48.730;9.136;2022-08-14T05:38:37;19.70;63.80
31113;DHT22;17763;48.730;9.136;2022-08-14T05:41:05;19.70;63.60
31113;DHT22;17763;48.730;9.136;2022-08-14T05:43:31;19.70;63.40
31113;DHT22;17763;48.730;9.136;2022-08-14T05:46:02;19.70;63.60
31113;DHT22;17763;48.730;9.136;2022-08-14T05:48:28;19.70;63.50
31113;DHT22;17763;48.730;9.136;2022-08-14T05:50:54;19.70;63.70
31113;DHT22;17763;48.730;9.136;2022-08-14T05:53:21;19.70;63.90
31113;DHT22;17763;48.730;9.136;2022-08-14T05:55:52;19.80;63.90
31113;DHT22;17763;48.730;9.136;2022-08-14T05:58:19;19.80;64.00
31113;DHT22;17763;48.730;9.136;2022-08-14T06:00:45;19.90;63.90
31113;DHT22;17763;48.730;9.136;2022-08-14T06:03:14;20.20;63.60
31113;DHT22;17763;48.730;9.136;2022-08-14T06:05:47;20.70;62.60
31113;DHT22;17763;48.730;9.136;2022-08-14T06:08:25;21.30;61.30
31113;DHT22;17763;48.730;9.136;2022-08-14T06:10:58;21.50;60.50
31113;DHT22;17763;48.730;9.136;2022-08-14T06:13:31;21.60;60.10
31113;DHT22;17763;48.730;9.136;2022-08-14T06:15:57;21.60;60.00
31113;DHT22;17763;48.730;9.136;2022-08-14T06:18:23;21.50;60.40
31113;DHT22;17763;48.730;9.136;2022-08-14T06:20:51;21.30;60.60
31113;DHT22;17763;48.730;9.136;2022-08-14T06:23:17;21.20;61.10
31113;DHT22;17763;48.730;9.136;2022-08-14T06:25:43;21.00;61.40
31113;DHT22;17763;48.730;9.136;2022-08-14T06:28:22;20.90;61.80
31113;DHT22;17763;48.730;9.136;2022-08-14T06:30:48;20.80;62.00
31113;DHT22;17763;48.730;9.136;2022-08-14T06:33:17;20.80;61.90
31113;DHT22;17763;48.730;9.136;2022-08-14T06:35:47;20.70;62.20
31113;DHT22;17763;48.730;9.136;2022-08-14T06:38:15;20.80;62.60
31113;DHT22;17763;48.730;9.136;2022-08-14T06:40:41;20.80;62.30
31113;DHT22;17763;48.730;9.136;2022-08-14T06:43:09;20.80;61.80
31113;DHT22;17763;48.730;9.136;2022-08-14T06:45:37;20.80;62.40
31113;DHT22;17763;48.730;9.136;2022-08-14T06:48:32;20.80;62.00
31113;DHT22;17763;48.730;9.136;2022-08-14T06:50:57;20.90;61.90
31113;DHT22;17763;48.730;9.136;2022-08-14T06:53:23;20.90;61.70
31113;DHT22;17763;48.730;9.136;2022-08-14T06:55:50;20.90;61.20
31113;DHT22;17763;48.730;9.136;2022-08-14T06:58:17;21.00;61.20
31113;DHT22;17763;48.730;9.136;2022-08-14T07:00:44;21.00;61.20
31113;DHT22;17763;48.730;9.136;2022-08-14T07:03:31;21.10;60.90
31113;DHT22;17763;48.730;9.136;2022-08-14T07:06:16;21.20;60.60
31113;DHT22;17763;48.730;9.136;2022-08-14T07:08:44;21.20;60.50
31113;DHT22;17763;48.730;9.136;2022-08-14T07:11:11;21.40;60.50
31113;DHT22;17763;48.730;9.136;2022-08-14T07:13:37;21.40;60.70
31113;DHT22;17763;48.730;9.136;2022-08-14T07:16:04;21.50;60.30
31113;DHT22;17763;48.730;9.136;2022-08-14T07:18:31;21.50;60.30
31113;DHT22;17763;48.730;9.136;2022-08-14T07:20:58;21.50;60.00
31113;DHT22;17763;48.730;9.136;2022-08-14T07:23:25;21.60;59.60
31113;DHT22;17763;48.730;9.136;2022-08-14T07:25:53;21.70;59.00
31113;DHT22;17763;48.730;9.136;2022-08-14T07:30:48;21.80;58.20
31113;DHT22;17763;48.730;9.136;2022-08-14T07:33:19;21.80;58.20
31113;DHT22;17763;48.730;9.136;2022-08-14T07:35:44;21.90;57.60
31113;DHT22;17763;48.730;9.136;2022-08-14T07:38:16;21.90;57.70
31113;DHT22;17763;48.730;9.136;2022-08-14T07:40:42;22.00;58.00
31113;DHT22;17763;48.730;9.136;2022-08-14T07:43:08;22.00;57.80
31113;DHT22;17763;48.730;9.136;2022-08-14T07:45:33;22.10;57.90
31113;DHT22;17763;48.730;9.136;2022-08-14T07:48:03;22.10;57.70
31113;DHT22;17763;48.730;9.136;2022-08-14T07:50:32;22.20;57.50
31113;DHT22;17763;48.730;9.136;2022-08-14T07:52:58;22.20;57.40
31113;DHT22;17763;48.730;9.136;2022-08-14T07:55:27;22.30;57.30
31113;DHT22;17763;48.730;9.136;2022-08-14T07:57:57;22.30;57.40
31113;DHT22;17763;48.730;9.136;2022-08-14T08:00:24;22.40;57.70
31113;DHT22;17763;48.730;9.136;2022-08-14T08:02:53;22.40;56.90
31113;DHT22;17763;48.730;9.136;2022-08-14T08:05:25;22.50;56.30
31113;DHT22;17763;48.730;9.136;2022-08-14T08:07:52;22.50;56.00
31113;DHT22;17763;48.730;9.136;2022-08-14T08:10:23;22.60;56.00
31113;DHT22;17763;48.730;9.136;2022-08-14T08:15:28;22.70;55.80
31113;DHT22;17763;48.730;9.136;2022-08-14T08:17:57;22.70;55.90
31113;DHT22;17763;48.730;9.136;2022-08-14T08:20:25;22.80;56.00
31113;DHT22;17763;48.730;9.136;2022-08-14T08:22:55;22.90;55.50
31113;DHT22;17763;48.730;9.136;2022-08-14T08:25:30;23.00;55.10
31113;DHT22;17763;48.730;9.136;2022-08-14T08:28:00;23.10;54.80
31113;DHT22;17763;48.730;9.136;2022-08-14T08:30:27;23.10;54.20
31113;DHT22;17763;48.730;9.136;2022-08-14T08:32:57;23.20;53.70
31113;DHT22;17763;48.730;9.136;2022-08-14T08:35:28;23.30;53.70
31113;DHT22;17763;48.730;9.136;2022-08-14T08:38:01;23.30;53.90
31113;DHT22;17763;48.730;9.136;2022-08-14T08:40:33;23.40;53.40
31113;DHT22;17763;48.730;9.136;2022-08-14T08:43:04;23.50;53.30
31113;DHT22;17763;48.730;9.136;2022-08-14T08:45:34;23.60;53.40
31113;DHT22;17763;48.730;9.136;2022-08-14T08:48:01;23.70;52.90
31113;DHT22;17763;48.730;9.136;2022-08-14T08:50:33;23.80;51.60
31113;DHT22;17763;48.730;9.136;2022-08-14T08:53:05;23.90;52.20
31113;DHT22;17763;48.730;9.136;2022-08-14T08:55:44;23.90;52.90
31113;DHT22;17763;48.730;9.136;2022-08-14T08:58:20;24.00;52.70
31113;DHT22;17763;48.730;9.136;2022-08-14T09:00:51;24.00;52.80
31113;DHT22;17763;48.730;9.136;2022-08-14T09:03:20;24.10;52.40
31113;DHT22;17763;48.730;9.136;2022-08-14T09:05:58;24.20;51.70
31113;DHT22;17763;48.730;9.136;2022-08-14T09:08:33;24.20;51.70
31113;DHT22;17763;48.730;9.136;2022-08-14T09:11:08;24.30;51.80
31113;DHT22;17763;48.730;9.136;2022-08-14T09:13:37;24.30;51.80
31113;DHT22;17763;48.730;9.136;2022-08-14T09:16:03;24.50;51.90
31113;DHT22;17763;48.730;9.136;2022-08-14T09:18:31;24.50;52.20
31113;DHT22;17763;48.730;9.136;2022-08-14T09:20:59;24.60;51.70
31113;DHT22;17763;48.730;9.136;2022-08-14T09:23:27;24.60;50.80
31113;DHT22;17763;48.730;9.136;2022-08-14T09:25:53;24.70;50.70
31113;DHT22;17763;48.730;9.136;2022-08-14T09:28:21;24.80;51.20
31113;DHT22;17763;48.730;9.136;2022-08-14T09:30:53;24.80;51.00
31113;DHT22;17763;48.730;9.136;2022-08-14T09:33:21;24.80;49.80
31113;DHT22;17763;48.730;9.136;2022-08-14T09:41:46;25.10;48.40
31113;DHT22;17763;48.730;9.136;2022-08-14T09:47:11;25.20;50.30
31113;DHT22;17763;48.730;9.136;2022-08-14T09:49:39;25.20;50.10
31113;DHT22;17763;48.730;9.136;2022-08-14T09:52:12;25.30;49.70
31113;DHT22;17763;48.730;9.136;2022-08-14T09:54:46;25.30;49.80
31113;DHT22;17763;48.730;9.136;2022-08-14T09:57:29;25.30;50.30
31113;DHT22;17763;48.730;9.136;2022-08-14T09:59:56;25.30;50.20
31113;DHT22;17763;48.730;9.136;2022-08-14T10:05:07;25.50;49.60
31113;DHT22;17763;48.730;9.136;2022-08-14T10:07:44;25.50;49.60
31113;DHT22;17763;48.730;9.136;2022-08-14T10:13:01;25.50;49.60
31113;DHT22;17763;48.730;9.136;2022-08-14T10:15:31;25.50;49.60
31113;DHT22;17763;48.730;9.136;2022-08-14T10:18:15;25.60;49.70
31113;DHT22;17763;48.730;9.136;2022-08-14T10:20:56;25.60;50.30
31113;DHT22;17763;48.730;9.136;2022-08-14T10:23:24;25.60;49.90
31113;DHT22;17763;48.730;9.136;2022-08-14T10:26:02;25.50;49.80
31113;DHT22;17763;48.730;9.136;2022-08-14T10:29:03;25.60;49.40
31113;DHT22;17763;48.730;9.136;2022-08-14T10:31:28;25.60;49.10
31113;DHT22;17763;48.730;9.136;2022-08-14T10:36:39;25.70;48.70
31113;DHT22;17763;48.730;9.136;2022-08-14T10:39:22;25.80;48.70
31113;DHT22;17763;48.730;9.136;2022-08-14T10:41:59;25.90;48.00
31113;DHT22;17763;48.730;9.136;2022-08-14T10:44:40;26.00;48.00
31113;DHT22;17763;48.730;9.136;2022-08-14T10:47:07;26.00;47.50
31113;DHT22;17763;48.730;9.136;2022-08-14T10:49:40;26.00;46.70
31113;DHT22;17763;48.730;9.136;2022-08-14T10:52:20;26.10;46.40
31113;DHT22;17763;48.730;9.136;2022-08-14T10:54:47;26.20;47.00
31113;DHT22;17763;48.730;9.136;2022-08-14T10:57:28;26.30;46.70
31113;DHT22;17763;48.730;9.136;2022-08-14T10:59:59;26.40;46.80
31113;DHT22;17763;48.730;9.136;2022-08-14T11:02:35;26.40;46.70
31113;DHT22;17763;48.730;9.136;2022-08-14T11:07:36;26.50;46.00
31113;DHT22;17763;48.730;9.136;2022-08-14T11:10:12;26.50;46.00
31113;DHT22;17763;48.730;9.136;2022-08-14T11:12:47;26.50;45.90
31113;DHT22;17763;48.730;9.136;2022-08-14T11:15:21;26.50;45.80
31113;DHT22;17763;48.730;9.136;2022-08-14T11:17:50;26.50;45.70
31113;DHT22;17763;48.730;9.136;2022-08-14T11:20:25;26.50;46.10
31113;DHT22;17763;48.730;9.136;2022-08-14T11:22:59;26.50;45.90
31113;DHT22;17763;48.730;9.136;2022-08-14T11:25:29;26.50;45.70
31113;DHT22;17763;48.730;9.136;2022-08-14T11:28:01;26.70;45.10
31113;DHT22;17763;48.730;9.136;2022-08-14T11:30:29;26.70;45.30
31113;DHT22;17763;48.730;9.136;2022-08-14T11:32:57;26.70;45.20
31113;DHT22;17763;48.730;9.136;2022-08-14T11:35:27;26.70;45.20
31113;DHT22;17763;48.730;9.136;2022-08-14T11:37:58;26.70;45.30
31113;DHT22;17763;48.730;9.136;2022-08-14T11:40:25;26.70;45.50
31113;DHT22;17763;48.730;9.136;2022-08-14T11:42:55;26.70;45.30
31113;DHT22;17763;48.730;9.136;2022-08-14T11:45:23;26.70;45.20
31113;DHT22;17763;48.730;9.136;2022-08-14T11:47:50;26.70;44.70
31113;DHT22;17763;48.730;9.136;2022-08-14T11:50:23;26.80;45.40
31113;DHT22;17763;48.730;9.136;2022-08-14T11:52:50;26.90;44.00
31113;DHT22;17763;48.730;9.136;2022-08-14T11:55:24;26.90;44.00
31113;DHT22;17763;48.730;9.136;2022-08-14T11:58:02;27.10;44.70
31113;DHT22;17763;48.730;9.136;2022-08-14T12:00:31;27.10;44.00
31113;DHT22;17763;48.730;9.136;2022-08-14T12:03:00;27.20;43.90
31113;DHT22;17763;48.730;9.136;2022-08-14T12:05:29;27.20;43.90
31113;DHT22;17763;48.730;9.136;2022-08-14T12:07:57;27.20;43.70
31113;DHT22;17763;48.730;9.136;2022-08-14T12:10:25;27.20;44.10
31113;DHT22;17763;48.730;9.136;2022-08-14T12:12:51;27.10;43.20
31113;DHT22;17763;48.730;9.136;2022-08-14T12:15:33;27.00;43.50
31113;DHT22;17763;48.730;9.136;2022-08-14T12:18:00;27.00;43.80
31113;DHT22;17763;48.730;9.136;2022-08-14T12:20:37;27.10;43.80
31113;DHT22;17763;48.730;9.136;2022-08-14T12:23:04;27.20;43.20
31113;DHT22;17763;48.730;9.136;2022-08-14T12:25:31;27.20;43.20
31113;DHT22;17763;48.730;9.136;2022-08-14T12:28:00;27.30;42.80
31113;DHT22;17763;48.730;9.136;2022-08-14T12:30:35;27.40;42.50
31113;DHT22;17763;48.730;9.136;2022-08-14T12:33:05;27.50;42.80
31113;DHT22;17763;48.730;9.136;2022-08-14T12:35:52;27.60;42.80
31113;DHT22;17763;48.730;9.136;2022-08-14T12:38:18;27.60;41.90
31113;DHT22;17763;48.730;9.136;2022-08-14T12:40:55;27.70;41.70
31113;DHT22;17763;48.730;9.136;2022-08-14T12:43:21;27.70;41.10
31113;DHT22;17763;48.730;9.136;2022-08-14T12:45:54;27.70;41.10
31113;DHT22;17763;48.730;9.136;2022-08-14T12:48:23;27.80;41.50
31113;DHT22;17763;48.730;9.136;2022-08-14T12:50:51;27.80;42.10
31113;DHT22;17763;48.730;9.136;2022-08-14T12:53:18;27.80;41.50
31113;DHT22;17763;48.730;9.136;2022-08-14T12:55:44;27.80;40.60
31113;DHT22;17763;48.730;9.136;2022-08-14T12:58:10;27.90;40.20
31113;DHT22;17763;48.730;9.136;2022-08-14T13:00:47;28.00;39.80
31113;DHT22;17763;48.730;9.136;2022-08-14T13:03:25;28.10;38.80
31113;DHT22;17763;48.730;9.136;2022-08-14T13:05:51;28.20;38.90
31113;DHT22;17763;48.730;9.136;2022-08-14T13:08:17;28.20;39.30
31113;DHT22;17763;48.730;9.136;2022-08-14T13:10:42;28.40;38.60
31113;DHT22;17763;48.730;9.136;2022-08-14T13:13:09;28.40;38.20
31113;DHT22;17763;48.730;9.136;2022-08-14T13:15:35;28.50;39.00
31113;DHT22;17763;48.730;9.136;2022-08-14T13:18:02;28.50;39.40
31113;DHT22;17763;48.730;9.136;2022-08-14T13:20:33;28.40;38.00
31113;DHT22;17763;48.730;9.136;2022-08-14T13:22:58;28.40;38.30
31113;DHT22;17763;48.730;9.136;2022-08-14T13:25:27;28.40;38.60
31113;DHT22;17763;48.730;9.136;2022-08-14T13:27:55;28.50;39.10
31113;DHT22;17763;48.730;9.136;2022-08-14T13:30:27;28.50;38.80
31113;DHT22;17763;48.730;9.136;2022-08-14T13:32:54;28.50;37.30
31113;DHT22;17763;48.730;9.136;2022-08-14T13:35:20;28.50;37.10
31113;DHT22;17763;48.730;9.136;2022-08-14T13:37:47;28.50;37.40
31113;DHT22;17763;48.730;9.136;2022-08-14T13:40:18;28.50;37.60
31113;DHT22;17763;48.730;9.136;2022-08-14T13:42:46;28.50;37.50
31113;DHT22;17763;48.730;9.136;2022-08-14T13:45:13;28.70;37.50
31113;DHT22;17763;48.730;9.136;2022-08-14T13:47:40;28.80;37.40
31113;DHT22;17763;48.730;9.136;2022-08-14T13:50:08;28.90;37.00
31113;DHT22;17763;48.730;9.136;2022-08-14T13:52:50;29.00;37.10
31113;DHT22;17763;48.730;9.136;2022-08-14T13:55:20;29.00;38.00
31113;DHT22;17763;48.730;9.136;2022-08-14T13:57:49;29.00;37.50
31113;DHT22;17763;48.730;9.136;2022-08-14T14:00:16;29.10;37.20
31113;DHT22;17763;48.730;9.136;2022-08-14T14:02:46;29.20;37.40
31113;DHT22;17763;48.730;9.136;2022-08-14T14:05:17;29.30;36.90
31113;DHT22;17763;48.730;9.136;2022-08-14T14:07:50;29.40;36.70
31113;DHT22;17763;48.730;9.136;2022-08-14T14:10:18;29.50;36.30
31113;DHT22;17763;48.730;9.136;2022-08-14T14:12:46;29.60;36.50
31113;DHT22;17763;48.730;9.136;2022-08-14T14:15:14;29.70;37.30
31113;DHT22;17763;48.730;9.136;2022-08-14T14:17:41;29.70;37.30
31113;DHT22;17763;48.730;9.136;2022-08-14T14:20:12;29.80;37.20
31113;DHT22;17763;48.730;9.136;2022-08-14T14:22:47;29.90;37.50
31113;DHT22;17763;48.730;9.136;2022-08-14T14:25:17;29.90;37.40
31113;DHT22;17763;48.730;9.136;2022-08-14T14:27:48;29.90;37.20
31113;DHT22;17763;48.730;9.136;2022-08-14T14:30:15;29.90;37.50
31113;DHT22;17763;48.730;9.136;2022-08-14T14:32:47;29.90;37.10
31113;DHT22;17763;48.730;9.136;2022-08-14T14:35:16;29.90;36.80
31113;DHT22;17763;48.730;9.136;2022-08-14T14:37:47;30.00;37.80
31113;DHT22;17763;48.730;9.136;2022-08-14T14:40:17;30.00;37.40
31113;DHT22;17763;48.730;9.136;2022-08-14T14:42:50;30.00;36.60
31113;DHT22;17763;48.730;9.136;2022-08-14T14:45:21;30.00;36.00
31113;DHT22;17763;48.730;9.136;2022-08-14T14:47:50;29.90;36.30
31113;DHT22;17763;48.730;9.136;2022-08-14T14:50:16;29.90;36.40
31113;DHT22;17763;48.730;9.136;2022-08-14T14:52:42;29.90;36.60
31113;DHT22;17763;48.730;9.136;2022-08-14T14:55:10;29.90;36.80
31113;DHT22;17763;48.730;9.136;2022-08-14T14:57:44;29.90;36.90
31113;DHT22;17763;48.730;9.136;2022-08-14T15:00:15;29.90;36.30
31113;DHT22;17763;48.730;9.136;2022-08-14T15:02:44;29.90;36.30
31113;DHT22;17763;48.730;9.136;2022-08-14T15:05:12;30.00;36.70
31113;DHT22;17763;48.730;9.136;2022-08-14T15:07:39;30.00;35.40
31113;DHT22;17763;48.730;9.136;2022-08-14T15:10:09;29.90;35.20
31113;DHT22;17763;48.730;9.136;2022-08-14T15:12:35;30.00;36.50
31113;DHT22;17763;48.730;9.136;2022-08-14T15:15:06;29.80;35.90
31113;DHT22;17763;48.730;9.136;2022-08-14T15:17:32;29.80;36.00
31113;DHT22;17763;48.730;9.136;2022-08-14T15:20:04;29.80;37.00
31113;DHT22;17763;48.730;9.136;2022-08-14T15:22:33;29.70;37.30
31113;DHT22;17763;48.730;9.136;2022-08-14T15:24:58;29.70;36.80
31113;DHT22;17763;48.730;9.136;2022-08-14T15:27:24;29.80;36.50
31113;DHT22;17763;48.730;9.136;2022-08-14T15:29:50;29.80;36.90
31113;DHT22;17763;48.730;9.136;2022-08-14T15:32:18;29.90;36.80
31113;DHT22;17763;48.730;9.136;2022-08-14T15:34:46;29.90;37.60
31113;DHT22;17763;48.730;9.136;2022-08-14T15:37:14;29.90;37.00
31113;DHT22;17763;48.730;9.136;2022-08-14T15:39:40;29.90;36.80
31113;DHT22;17763;48.730;9.136;2022-08-14T15:42:09;30.00;36.80
31113;DHT22;17763;48.730;9.136;2022-08-14T15:44:35;30.00;36.40
31113;DHT22;17763;48.730;9.136;2022-08-14T15:47:01;30.00;36.30
31113;DHT22;17763;48.730;9.136;2022-08-14T15:49:34;30.00;36.40
31113;DHT22;17763;48.730;9.136;2022-08-14T15:52:03;30.10;36.60
31113;DHT22;17763;48.730;9.136;2022-08-14T15:54:31;30.10;36.50
31113;DHT22;17763;48.730;9.136;2022-08-14T15:57:06;30.10;35.30
31113;DHT22;17763;48.730;9.136;2022-08-14T15:59:33;30.10;35.00
31113;DHT22;17763;48.730;9.136;2022-08-14T16:02:18;30.10;35.90
31113;DHT22;17763;48.730;9.136;2022-08-14T16:04:46;30.00;35.60
31113;DHT22;17763;48.730;9.136;2022-08-14T16:07:15;30.00;35.80
31113;DHT22;17763;48.730;9.136;2022-08-14T16:09:41;30.00;36.40